createdAt,value
2022-10-13T00:00:47.843Z,14.40
2022-10-13T00:03:14.664Z,15.60
2022-10-13T00:05:47.258Z,15.10
2022-10-13T00:08:15.544Z,15.85
2022-10-13T00:10:42.093Z,16.33
2022-10-13T00:13:08.926Z,15.63
2022-10-13T00:15:44.577Z,14.52
2022-10-13T00:18:11.078Z,14.85
2022-10-13T00:20:45.347Z,15.15
2022-10-13T00:23:13.777Z,15.82
2022-10-13T00:25:42.084Z,15.48
2022-10-13T00:28:08.569Z,15.02
2022-10-13T00:30:37.802Z,15.27
2022-10-13T00:33:04.793Z,14.65
2022-10-13T00:35:31.341Z,14.13
2022-10-13T00:37:57.822Z,15.85
2022-10-13T00:40:24.495Z,14.98
2022-10-13T00:42:50.954Z,14.55
2022-10-13T00:45:29.423Z,14.98
2022-10-13T00:48:01.731Z,15.25
2022-10-13T00:50:33.899Z,14.88
2022-10-13T00:53:01.528Z,16.08
2022-10-13T00:55:31.847Z,16.38
2022-10-13T00:58:05.081Z,15.50
2022-10-13T01:00:34.098Z,15.85
2022-10-13T01:03:02.017Z,16.13
2022-10-13T01:05:29.894Z,15.43
2022-10-13T01:07:57.847Z,14.23
2022-10-13T01:11:05.871Z,14.20
2022-10-13T01:13:38.489Z,15.27
2022-10-13T01:16:20.612Z,15.50
2022-10-13T01:19:01.043Z,14.77
2022-10-13T01:21:40.707Z,16.23
2022-10-13T01:24:16.026Z,15.63
2022-10-13T01:29:27.035Z,15.68
2022-10-13T01:32:26.324Z,16.50
2022-10-13T01:35:01.215Z,15.38
2022-10-13T01:37:33.064Z,16.10
2022-10-13T01:40:19.134Z,15.50
2022-10-13T01:42:51.331Z,14.85
2022-10-13T01:45:21.587Z,15.55
2022-10-13T01:47:50.043Z,17.30
2022-10-13T01:50:18.745Z,16.63
2022-10-13T01:52:46.925Z,14.88
2022-10-13T01:55:13.868Z,14.52
2022-10-13T01:57:43.354Z,17.05
2022-10-13T02:00:16.129Z,16.70
2022-10-13T02:02:42.562Z,15.68
2022-10-13T02:05:14.921Z,16.23
2022-10-13T02:07:53.245Z,15.52
2022-10-13T02:10:37.482Z,15.40
2022-10-13T02:13:06.576Z,15.55
2022-10-13T02:15:38.635Z,15.80
2022-10-13T02:18:07.299Z,15.05
2022-10-13T02:20:34.477Z,16.00
2022-10-13T02:23:07.115Z,14.30
2022-10-13T02:25:33.945Z,14.90
2022-10-13T02:28:02.022Z,14.55
2022-10-13T02:30:30.492Z,15.98
2022-10-13T02:32:57.007Z,14.63
2022-10-13T02:35:23.466Z,14.90
2022-10-13T02:37:49.921Z,14.30
2022-10-13T02:40:16.541Z,14.75
2022-10-13T02:42:43.061Z,14.80
2022-10-13T02:45:10.076Z,13.68
2022-10-13T02:47:36.506Z,15.75
2022-10-13T02:50:03.814Z,14.73
2022-10-13T02:52:30.259Z,15.02
2022-10-13T02:54:56.708Z,15.48
2022-10-13T02:57:23.146Z,15.40
2022-10-13T02:59:49.910Z,15.98
2022-10-13T03:02:17.510Z,14.60
2022-10-13T03:04:44.219Z,16.40
2022-10-13T03:07:10.759Z,14.48
2022-10-13T03:09:37.235Z,14.45
2022-10-13T03:12:04.148Z,14.40
2022-10-13T03:14:30.661Z,13.55
2022-10-13T03:16:57.155Z,16.98
2022-10-13T03:19:23.728Z,13.30
2022-10-13T03:21:50.130Z,14.18
2022-10-13T03:24:16.561Z,14.25
2022-10-13T03:26:42.977Z,14.93
2022-10-13T03:29:14.924Z,13.73
2022-10-13T03:31:41.934Z,14.57
2022-10-13T03:34:12.657Z,13.98
2022-10-13T03:36:39.669Z,14.25
2022-10-13T03:39:06.613Z,14.32
2022-10-13T03:41:33.352Z,14.48
2022-10-13T03:43:59.882Z,13.43
2022-10-13T03:46:28.762Z,14.02
2022-10-13T03:48:55.562Z,14.25
2022-10-13T03:51:22.913Z,13.82
2022-10-13T03:53:51.906Z,13.40
2022-10-13T03:56:25.053Z,14.52
2022-10-13T03:58:54.688Z,13.00
2022-10-13T04:01:23.189Z,13.32
2022-10-13T04:03:52.007Z,13.48
2022-10-13T04:06:18.455Z,12.63
2022-10-13T04:08:44.920Z,12.80
2022-10-13T04:11:14.596Z,12.57
2022-10-13T04:13:41.815Z,13.27
2022-10-13T04:16:18.645Z,13.23
2022-10-13T04:18:45.944Z,13.52
2022-10-13T04:21:15.011Z,12.50
2022-10-13T04:23:41.920Z,13.02
2022-10-13T04:26:18.575Z,13.20
2022-10-13T04:28:45.769Z,13.48
2022-10-13T04:31:12.579Z,13.35
2022-10-13T04:33:39.210Z,13.25
2022-10-13T04:36:07.825Z,12.57
2022-10-13T04:38:34.422Z,13.40
2022-10-13T04:41:05.093Z,13.57
2022-10-13T04:43:32.677Z,13.38
2022-10-13T04:46:04.035Z,13.13
2022-10-13T04:48:30.566Z,13.52
2022-10-13T04:51:00.997Z,12.32
2022-10-13T04:53:29.326Z,11.82
2022-10-13T04:56:08.526Z,12.85
2022-10-13T04:58:36.097Z,12.27
2022-10-13T05:01:04.788Z,11.07
2022-10-13T05:03:31.452Z,12.45
2022-10-13T05:05:57.928Z,14.45
2022-10-13T05:08:24.903Z,14.30
2022-10-13T05:10:59.305Z,13.02
2022-10-13T05:13:26.775Z,13.45
2022-10-13T05:15:53.225Z,13.23
2022-10-13T05:18:19.921Z,13.35
2022-10-13T05:20:46.778Z,12.02
2022-10-13T05:23:14.276Z,12.38
2022-10-13T05:25:40.780Z,12.05
2022-10-13T05:28:08.041Z,13.45
2022-10-13T05:30:35.032Z,13.10
2022-10-13T05:33:01.820Z,13.10
2022-10-13T05:35:28.492Z,13.57
2022-10-13T05:37:54.928Z,15.23
2022-10-13T05:40:21.484Z,13.02
2022-10-13T05:42:51.320Z,12.90
2022-10-13T05:45:19.587Z,14.13
2022-10-13T05:47:46.105Z,12.13
2022-10-13T05:50:12.779Z,12.38
2022-10-13T05:52:39.581Z,12.75
2022-10-13T05:55:10.010Z,12.80
2022-10-13T05:58:02.556Z,12.73
2022-10-13T06:00:29.349Z,13.45
2022-10-13T06:03:12.617Z,12.93
2022-10-13T06:05:40.642Z,14.10
2022-10-13T06:08:07.079Z,13.50
2022-10-13T06:10:33.563Z,14.55
2022-10-13T06:13:00.031Z,13.32
2022-10-13T06:15:28.281Z,13.30
2022-10-13T06:17:54.915Z,12.73
2022-10-13T06:20:21.401Z,13.15
2022-10-13T06:22:50.063Z,12.88
2022-10-13T06:25:16.742Z,12.10
2022-10-13T06:27:43.557Z,11.13
2022-10-13T06:30:10.229Z,11.82
2022-10-13T06:32:36.644Z,11.85
2022-10-13T06:35:04.569Z,10.80
2022-10-13T06:37:31.001Z,10.52
2022-10-13T06:39:57.401Z,12.50
2022-10-13T06:42:23.901Z,12.02
2022-10-13T06:44:50.597Z,13.15
2022-10-13T06:47:17.010Z,12.45
2022-10-13T06:49:43.443Z,12.30
2022-10-13T06:52:09.904Z,12.43
2022-10-13T06:54:36.301Z,12.15
2022-10-13T06:57:06.076Z,12.75
2022-10-13T06:59:32.594Z,12.07
2022-10-13T07:01:59.123Z,13.27
2022-10-13T07:04:27.885Z,15.20
2022-10-13T07:06:54.323Z,13.30
2022-10-13T07:09:20.824Z,13.35
2022-10-13T07:11:47.540Z,12.80
2022-10-13T07:14:14.251Z,13.30
2022-10-13T07:16:41.110Z,14.25
2022-10-13T07:19:07.852Z,14.68
2022-10-13T07:21:34.284Z,13.63
2022-10-13T07:24:02.328Z,15.27
2022-10-13T07:26:28.732Z,14.57
2022-10-13T07:28:55.257Z,14.15
2022-10-13T07:31:21.801Z,13.85
2022-10-13T07:33:50.396Z,14.32
2022-10-13T07:36:17.768Z,17.35
2022-10-13T07:38:44.285Z,18.40
2022-10-13T07:41:12.889Z,15.55
2022-10-13T07:43:39.623Z,14.23
2022-10-13T07:46:07.606Z,15.70
2022-10-13T07:48:35.221Z,14.60
2022-10-13T07:51:10.911Z,16.17
2022-10-13T07:53:37.660Z,15.23
2022-10-13T07:56:06.543Z,13.40
2022-10-13T07:58:36.526Z,12.88
2022-10-13T08:01:03.806Z,12.38
2022-10-13T08:03:30.779Z,12.98
2022-10-13T08:06:01.728Z,10.95
2022-10-13T08:08:28.731Z,11.30
2022-10-13T08:10:55.539Z,12.35
2022-10-13T08:13:22.104Z,10.00
2022-10-13T08:15:48.581Z,11.30
2022-10-13T08:18:15.501Z,14.88
2022-10-13T08:20:44.547Z,13.45
2022-10-13T08:23:12.811Z,11.07
2022-10-13T08:25:40.510Z,11.25
2022-10-13T08:28:18.877Z,11.02
2022-10-13T08:30:46.020Z,11.95
2022-10-13T08:33:12.732Z,10.13
2022-10-13T08:35:39.396Z,11.20
2022-10-13T08:38:07.533Z,10.75
2022-10-13T08:40:34.627Z,11.52
2022-10-13T08:43:04.807Z,13.18
2022-10-13T08:45:46.892Z,11.90
2022-10-13T08:48:25.868Z,14.07
2022-10-13T08:50:57.121Z,11.07
2022-10-13T08:53:40.142Z,10.85
2022-10-13T08:56:15.401Z,10.55
2022-10-13T08:58:43.041Z,10.52
2022-10-13T09:01:09.489Z,10.80
2022-10-13T09:03:45.182Z,11.98
2022-10-13T09:06:21.691Z,11.80
2022-10-13T09:09:12.481Z,11.38
2022-10-13T09:11:41.672Z,12.60
2022-10-13T09:14:12.719Z,11.57
2022-10-13T09:16:44.662Z,10.70
2022-10-13T09:19:24.656Z,10.40
2022-10-13T09:21:53.837Z,10.68
2022-10-13T09:24:22.092Z,12.52
2022-10-13T09:26:50.434Z,10.57
2022-10-13T09:29:20.921Z,11.80
2022-10-13T09:31:47.680Z,10.95
2022-10-13T09:34:14.099Z,11.57
2022-10-13T09:37:05.133Z,10.73
2022-10-13T09:39:33.400Z,10.52
2022-10-13T09:42:18.562Z,10.80
2022-10-13T09:44:46.137Z,11.35
2022-10-13T09:47:21.686Z,11.18
2022-10-13T09:50:06.375Z,10.52
2022-10-13T09:55:01.491Z,6.55
2022-10-13T09:57:40.084Z,7.97
2022-10-13T10:00:23.507Z,8.38
2022-10-13T10:02:56.742Z,9.55
2022-10-13T10:05:33.195Z,8.32
2022-10-13T10:08:12.814Z,8.85
2022-10-13T10:10:40.924Z,8.82
2022-10-13T10:13:12.519Z,8.63
2022-10-13T10:15:50.058Z,8.15
2022-10-13T10:18:23.143Z,6.78
2022-10-13T10:20:56.458Z,7.10
2022-10-13T10:23:32.363Z,9.43
2022-10-13T10:26:10.505Z,4.60
2022-10-13T10:28:58.660Z,7.03
2022-10-13T10:31:43.606Z,3.97
2022-10-13T10:34:28.821Z,5.87
2022-10-13T10:37:14.590Z,6.50
2022-10-13T10:40:10.360Z,1.55
2022-10-13T10:42:58.326Z,4.80
2022-10-13T10:45:33.676Z,2.80
